sensor_id;sensor_type;location;lat;lon;timestamp;pressure;altitude;pressure_sealevel;temperature;humidity
12694;BME280;6411;58.190;12.720;2023-02-11T00:02:23;62417.84;;;8.28;100.00
12694;BME280;6411;58.190;12.720;2023-02-11T00:04:52;62412.16;;;8.30;100.00
12694;BME280;6411;58.190;12.720;2023-02-11T00:07:18;62417.84;;;8.28;100.00
12694;BME280;6411;58.190;12.720;2023-02-11T00:09:45;62419.38;;;8.27;100.00
12694;BME280;6411;58.190;12.720;2023-02-11T00:12:10;62413.66;;;8.27;100.00
12694;BME280;6411;58.190;12.720;2023-02-11T00:14:36;62419.91;;;8.28;100.00
12694;BME280;6411;58.190;12.720;2023-02-11T00:17:02;62402.03;;;8.16;100.00
12694;BME280;6411;58.190;12.720;2023-02-11T00:19:33;62412.59;;;8.26;100.00
12694;BME280;6411;58.190;12.720;2023-02-11T00:22:00;62420.44;;;8.28;100.00
12694;BME280;6411;58.190;12.720;2023-02-11T00:24:26;62413.63;;;8.24;100.00
12694;BME280;6411;58.190;12.720;2023-02-11T00:26:51;62415.19;;;8.26;100.00
12694;BME280;6411;58.190;12.720;2023-02-11T00:29:17;62417.72;;;8.23;100.00
12694;BME280;6411;58.190;12.720;2023-02-11T00:31:42;62407.81;;;8.19;100.00
12694;BME280;6411;58.190;12.720;2023-02-11T00:34:08;62384.59;;;7.97;100.00
12694;BME280;6411;58.190;12.720;2023-02-11T00:36:33;62392.00;;;8.04;100.00
12694;BME280;6411;58.190;12.720;2023-02-11T00:38:59;62393.53;;;8.03;100.00
12694;BME280;6411;58.190;12.720;2023-02-11T00:41:25;62385.16;;;8.00;100.00
12694;BME280;6411;58.190;12.720;2023-02-11T00:43:51;62389.31;;;7.99;100.00
12694;BME280;6411;58.190;12.720;2023-02-11T00:46:16;62400.34;;;8.07;100.00
12694;BME280;6411;58.190;12.720;2023-02-11T00:48:42;62378.38;;;7.96;100.00
12694;BME280;6411;58.190;12.720;2023-02-11T00:51:08;62373.00;;;7.85;100.00
12694;BME280;6411;58.190;12.720;2023-02-11T00:53:34;62380.88;;;7.90;100.00
12694;BME280;6411;58.190;12.720;2023-02-11T00:56:00;62384.53;;;7.91;100.00
12694;BME280;6411;58.190;12.720;2023-02-11T00:58:26;62379.91;;;7.94;100.00
12694;BME280;6411;58.190;12.720;2023-02-11T01:00:53;62384.66;;;7.99;100.00
12694;BME280;6411;58.190;12.720;2023-02-11T01:03:18;62393.47;;;8.00;100.00
12694;BME280;6411;58.190;12.720;2023-02-11T01:05:44;62383.50;;;7.93;100.00
12694;BME280;6411;58.190;12.720;2023-02-11T01:08:09;62380.88;;;7.90;100.00
12694;BME280;6411;58.190;12.720;2023-02-11T01:10:35;62381.44;;;7.93;100.00
12694;BME280;6411;58.190;12.720;2023-02-11T01:13:00;62380.38;;;7.92;100.00
12694;BME280;6411;58.190;12.720;2023-02-11T01:15:26;62389.78;;;7.97;100.00
12694;BME280;6411;58.190;12.720;2023-02-11T01:17:52;62388.84;;;8.01;100.00
12694;BME280;6411;58.190;12.720;2023-02-11T01:20:20;62390.94;;;8.03;100.00
12694;BME280;6411;58.190;12.720;2023-02-11T01:22:46;62390.34;;;8.00;100.00
12694;BME280;6411;58.190;12.720;2023-02-11T01:25:12;62385.63;;;7.95;100.00
12694;BME280;6411;58.190;12.720;2023-02-11T01:27:37;62389.88;;;8.02;100.00
12694;BME280;6411;58.190;12.720;2023-02-11T01:30:05;62392.53;;;8.04;100.00
12694;BME280;6411;58.190;12.720;2023-02-11T01:32:32;62397.16;;;8.04;100.00
12694;BME280;6411;58.190;12.720;2023-02-11T01:34:58;62392.03;;;8.06;100.00
12694;BME280;6411;58.190;12.720;2023-02-11T01:37:24;62392.00;;;8.04;100.00
12694;BME280;6411;58.190;12.720;2023-02-11T01:39:49;62387.25;;;7.99;100.00
12694;BME280;6411;58.190;12.720;2023-02-11T01:42:18;62386.16;;;7.96;100.00
12694;BME280;6411;58.190;12.720;2023-02-11T01:44:44;62394.03;;;8.03;100.00
12694;BME280;6411;58.190;12.720;2023-02-11T01:47:10;62393.06;;;8.05;100.00
12694;BME280;6411;58.190;12.720;2023-02-11T01:49:38;62388.84;;;8.01;100.00
12694;BME280;6411;58.190;12.720;2023-02-11T01:52:11;62382.56;;;8.00;100.00
12694;BME280;6411;58.190;12.720;2023-02-11T01:54:45;62384.03;;;7.93;100.00
12694;BME280;6411;58.190;12.720;2023-02-11T01:57:33;62385.69;;;7.98;100.00
12694;BME280;6411;58.190;12.720;2023-02-11T02:02:55;62390.34;;;8.00;100.00
12694;BME280;6411;58.190;12.720;2023-02-11T02:05:47;62384.03;;;7.93;100.00
12694;BME280;6411;58.190;12.720;2023-02-11T02:10:43;62384.06;;;7.96;100.00
12694;BME280;6411;58.190;12.720;2023-02-11T02:13:10;62379.25;;;7.86;100.00
12694;BME280;6411;58.190;12.720;2023-02-11T02:15:37;62378.28;;;7.90;100.00
12694;BME280;6411;58.190;12.720;2023-02-11T02:18:10;62377.22;;;7.89;100.00
12694;BME280;6411;58.190;12.720;2023-02-11T02:23:58;62377.69;;;7.85;100.00
12694;BME280;6411;58.190;12.720;2023-02-11T02:34:55;62385.63;;;7.95;100.00
12694;BME280;6411;58.190;12.720;2023-02-11T02:37:56;62370.91;;;7.83;100.00
12694;BME280;6411;58.190;12.720;2023-02-11T02:43:13;62388.34;;;8.03;100.00
12694;BME280;6411;58.190;12.720;2023-02-11T02:45:39;62390.34;;;8.00;100.00
12694;BME280;6411;58.190;12.720;2023-02-11T02:48:05;62378.31;;;7.93;100.00
12694;BME280;6411;58.190;12.720;2023-02-11T02:50:34;62373.59;;;7.88;100.00
12694;BME280;6411;58.190;12.720;2023-02-11T02:56:24;62390.88;;;7.98;100.00
12694;BME280;6411;58.190;12.720;2023-02-11T02:59:16;62393.47;;;8.00;100.00
12694;BME280;6411;58.190;12.720;2023-02-11T03:04:51;62397.09;;;7.99;100.00
12694;BME280;6411;58.190;12.720;2023-02-11T03:12:21;62377.22;;;7.89;100.00
12694;BME280;6411;58.190;12.720;2023-02-11T03:14:50;62370.91;;;7.83;100.00
12694;BME280;6411;58.190;12.720;2023-02-11T03:17:17;62374.00;;;7.81;100.00
12694;BME280;6411;58.190;12.720;2023-02-11T03:19:45;62379.25;;;7.86;100.00
12694;BME280;6411;58.190;12.720;2023-02-11T03:22:33;62367.78;;;7.83;100.00
12694;BME280;6411;58.190;12.720;2023-02-11T03:25:03;62374.06;;;7.86;100.00
12694;BME280;6411;58.190;12.720;2023-02-11T03:27:36;62375.03;;;7.82;100.00
12694;BME280;6411;58.190;12.720;2023-02-11T03:30:15;62376.66;;;7.86;100.00
12694;BME280;6411;58.190;12.720;2023-02-11T03:32:49;62370.41;;;7.85;100.00
12694;BME280;6411;58.190;12.720;2023-02-11T03:36:02;62368.31;;;7.83;100.00
12694;BME280;6411;58.190;12.720;2023-02-11T03:38:19;62377.72;;;7.87;100.00
12694;BME280;6411;58.190;12.720;2023-02-11T03:40:46;62381.38;;;7.88;100.00
12694;BME280;6411;58.190;12.720;2023-02-11T03:43:16;62370.91;;;7.83;100.00
12694;BME280;6411;58.190;12.720;2023-02-11T03:45:44;62359.88;;;7.75;100.00
12694;BME280;6411;58.190;12.720;2023-02-11T03:48:40;62367.25;;;7.82;100.00
12694;BME280;6411;58.190;12.720;2023-02-11T03:51:08;62370.91;;;7.83;100.00
12694;BME280;6411;58.190;12.720;2023-02-11T03:53:36;62372.44;;;7.82;100.00
12694;BME280;6411;58.190;12.720;2023-02-11T03:56:06;62375.66;;;7.88;100.00
12694;BME280;6411;58.190;12.720;2023-02-11T03:58:33;62370.34;;;7.80;100.00
12694;BME280;6411;58.190;12.720;2023-02-11T04:00:59;62369.81;;;7.80;100.00
12694;BME280;6411;58.190;12.720;2023-02-11T04:03:26;62358.28;;;7.71;100.00
12694;BME280;6411;58.190;12.720;2023-02-11T04:05:51;62360.91;;;7.74;100.00
12694;BME280;6411;58.190;12.720;2023-02-11T04:08:19;62356.09;;;7.64;100.00
12694;BME280;6411;58.190;12.720;2023-02-11T04:10:44;62355.69;;;7.71;100.00
12694;BME280;6411;58.190;12.720;2023-02-11T04:13:10;62346.72;;;7.63;100.00
12694;BME280;6411;58.190;12.720;2023-02-11T04:15:35;62341.94;;;7.56;100.00
12694;BME280;6411;58.190;12.720;2023-02-11T04:18:01;62351.91;;;7.63;100.00
12694;BME280;6411;58.190;12.720;2023-02-11T04:20:28;62331.44;;;7.48;100.00
12694;BME280;6411;58.190;12.720;2023-02-11T04:22:54;62337.75;;;7.54;100.00
12694;BME280;6411;58.190;12.720;2023-02-11T04:25:19;62342.94;;;7.54;100.00
12694;BME280;6411;58.190;12.720;2023-02-11T04:27:45;62342.47;;;7.56;100.00
12694;BME280;6411;58.190;12.720;2023-02-11T04:30:12;62334.03;;;7.48;100.00
12694;BME280;6411;58.190;12.720;2023-02-11T04:32:38;62337.75;;;7.54;100.00
12694;BME280;6411;58.190;12.720;2023-02-11T04:35:04;62328.69;;;7.38;100.00
12694;BME280;6411;58.190;12.720;2023-02-11T04:37:30;62319.81;;;7.35;100.00
12694;BME280;6411;58.190;12.720;2023-02-11T04:39:56;62326.19;;;7.43;100.00
12694;BME280;6411;58.190;12.720;2023-02-11T04:42:21;62298.69;;;7.12;100.00
12694;BME280;6411;58.190;12.720;2023-02-11T04:44:47;62328.28;;;7.45;100.00
12694;BME280;6411;58.190;12.720;2023-02-11T04:47:12;62318.19;;;7.31;100.00
12694;BME280;6411;58.190;12.720;2023-02-11T04:49:39;62308.22;;;7.24;100.00
12694;BME280;6411;58.190;12.720;2023-02-11T04:52:05;62308.16;;;7.19;100.00
12694;BME280;6411;58.190;12.720;2023-02-11T04:54:31;62320.72;;;7.26;100.00
12694;BME280;6411;58.190;12.720;2023-02-11T04:56:56;62302.91;;;7.16;100.00
12694;BME280;6411;58.190;12.720;2023-02-11T04:59:22;62304.56;;;7.20;100.00
12694;BME280;6411;58.190;12.720;2023-02-11T05:01:48;62307.75;;;7.26;100.00
12694;BME280;6411;58.190;12.720;2023-02-11T05:04:14;62300.88;;;7.17;100.00
12694;BME280;6411;58.190;12.720;2023-02-11T05:06:40;62307.13;;;7.20;100.00
12694;BME280;6411;58.190;12.720;2023-02-11T05:09:05;62302.53;;;7.23;100.00
12694;BME280;6411;58.190;12.720;2023-02-11T05:11:31;62310.25;;;7.21;100.00
12694;BME280;6411;58.190;12.720;2023-02-11T05:13:56;62314.50;;;7.27;100.00
12694;BME280;6411;58.190;12.720;2023-02-11T05:16:22;62306.66;;;7.22;100.00
12694;BME280;6411;58.190;12.720;2023-02-11T05:18:47;62301.34;;;7.15;100.00
12694;BME280;6411;58.190;12.720;2023-02-11T05:21:16;62295.53;;;7.09;100.00
12694;BME280;6411;58.190;12.720;2023-02-11T05:23:42;62291.91;;;7.08;100.00
12694;BME280;6411;58.190;12.720;2023-02-11T05:26:08;62272.00;;;6.94;100.00
12694;BME280;6411;58.190;12.720;2023-02-11T05:28:34;62281.88;;;6.96;100.00
12694;BME280;6411;58.190;12.720;2023-02-11T05:31:00;62270.91;;;6.91;100.00
12694;BME280;6411;58.190;12.720;2023-02-11T05:33:26;62290.38;;;7.09;100.00
12694;BME280;6411;58.190;12.720;2023-02-11T05:35:57;62296.56;;;7.08;100.00
12694;BME280;6411;58.190;12.720;2023-02-11T05:38:22;62302.34;;;7.13;100.00
12694;BME280;6411;58.190;12.720;2023-02-11T05:40:48;62288.75;;;7.05;100.00
12694;BME280;6411;58.190;12.720;2023-02-11T05:43:13;62282.97;;;7.00;100.00
12694;BME280;6411;58.190;12.720;2023-02-11T05:45:39;62276.03;;;6.88;100.00
12694;BME280;6411;58.190;12.720;2023-02-11T05:48:04;62280.25;;;6.92;100.00
12694;BME280;6411;58.190;12.720;2023-02-11T05:50:30;62285.50;;;6.97;100.00
12694;BME280;6411;58.190;12.720;2023-02-11T05:52:55;62275.53;;;6.90;100.00
12694;BME280;6411;58.190;12.720;2023-02-11T05:55:21;62278.66;;;6.91;100.00
12694;BME280;6411;58.190;12.720;2023-02-11T05:57:46;62270.28;;;6.85;100.00
12694;BME280;6411;58.190;12.720;2023-02-11T06:00:12;62274.97;;;6.87;100.00
12694;BME280;6411;58.190;12.720;2023-02-11T06:02:38;62263.47;;;6.81;100.00
12694;BME280;6411;58.190;12.720;2023-02-11T06:05:04;62261.91;;;6.79;100.00
12694;BME280;6411;58.190;12.720;2023-02-11T06:07:29;62262.44;;;6.80;100.00
12694;BME280;6411;58.190;12.720;2023-02-11T06:09:55;62262.94;;;6.80;100.00
12694;BME280;6411;58.190;12.720;2023-02-11T06:12:20;62253.03;;;6.76;100.00
12694;BME280;6411;58.190;12.720;2023-02-11T06:14:46;62266.63;;;6.84;100.00
12694;BME280;6411;58.190;12.720;2023-02-11T06:17:11;62257.16;;;6.75;100.00
12694;BME280;6411;58.190;12.720;2023-02-11T06:19:37;62253.50;;;6.71;100.00
12694;BME280;6411;58.190;12.720;2023-02-11T06:22:02;62249.31;;;6.70;100.00
12694;BME280;6411;58.190;12.720;2023-02-11T06:24:28;62252.44;;;6.70;100.00
12694;BME280;6411;58.190;12.720;2023-02-11T06:26:53;62258.16;;;6.73;100.00
12694;BME280;6411;58.190;12.720;2023-02-11T06:29:19;62258.69;;;6.74;100.00
12694;BME280;6411;58.190;12.720;2023-02-11T06:31:44;62261.91;;;6.79;100.00
12694;BME280;6411;58.190;12.720;2023-02-11T06:34:10;62260.88;;;6.81;100.00
12694;BME280;6411;58.190;12.720;2023-02-11T06:36:37;62253.53;;;6.74;100.00
12694;BME280;6411;58.190;12.720;2023-02-11T06:39:03;62255.50;;;6.68;100.00
12694;BME280;6411;58.190;12.720;2023-02-11T06:41:29;62234.59;;;6.56;100.00
12694;BME280;6411;58.190;12.720;2023-02-11T06:43:54;62252.38;;;6.68;100.00
12694;BME280;6411;58.190;12.720;2023-02-11T06:46:20;62247.16;;;6.65;100.00
12694;BME280;6411;58.190;12.720;2023-02-11T06:48:46;62244.44;;;6.58;100.00
12694;BME280;6411;58.190;12.720;2023-02-11T06:51:12;62242.38;;;6.58;100.00
12694;BME280;6411;58.190;12.720;2023-02-11T06:53:40;62233.53;;;6.55;100.00
12694;BME280;6411;58.190;12.720;2023-02-11T06:56:09;62244.44;;;6.58;100.00
12694;BME280;6411;58.190;12.720;2023-02-11T06:58:36;62239.19;;;6.53;100.00
12694;BME280;6411;58.190;12.720;2023-02-11T07:01:06;62231.38;;;6.50;100.00
12694;BME280;6411;58.190;12.720;2023-02-11T07:03:34;62226.69;;;6.48;100.00
12694;BME280;6411;58.190;12.720;2023-02-11T07:06:01;62231.41;;;6.53;100.00
12694;BME280;6411;58.190;12.720;2023-02-11T07:08:26;62223.00;;;6.45;100.00
12694;BME280;6411;58.190;12.720;2023-02-11T07:10:52;62222.91;;;6.40;100.00
12694;BME280;6411;58.190;12.720;2023-02-11T07:13:17;62225.50;;;6.40;100.00
12694;BME280;6411;58.190;12.720;2023-02-11T07:15:43;62228.66;;;6.43;100.00
12694;BME280;6411;58.190;12.720;2023-02-11T07:18:08;62228.22;;;6.47;100.00
12694;BME280;6411;58.190;12.720;2023-02-11T07:20:34;62225.06;;;6.44;100.00
12694;BME280;6411;58.190;12.720;2023-02-11T07:23:00;62234.06;;;6.55;100.00
12694;BME280;6411;58.190;12.720;2023-02-11T07:25:26;62236.03;;;6.50;100.00
12694;BME280;6411;58.190;12.720;2023-02-11T07:27:51;62235.06;;;6.54;100.00
12694;BME280;6411;58.190;12.720;2023-02-11T07:30:17;62248.75;;;6.67;100.00
12694;BME280;6411;58.190;12.720;2023-02-11T07:32:42;62237.69;;;6.56;100.00
12694;BME280;6411;58.190;12.720;2023-02-11T07:35:08;62243.56;;;6.67;100.00
12694;BME280;6411;58.190;12.720;2023-02-11T07:37:34;62256.59;;;6.72;100.00
12694;BME280;6411;58.190;12.720;2023-02-11T07:39:59;62262.94;;;6.80;100.00
12694;BME280;6411;58.190;12.720;2023-02-11T07:42:25;62275.59;;;6.93;100.00
12694;BME280;6411;58.190;12.720;2023-02-11T07:44:50;62266.03;;;6.78;100.00
12694;BME280;6411;58.190;12.720;2023-02-11T07:47:16;62299.75;;;7.13;100.00
12694;BME280;6411;58.190;12.720;2023-02-11T07:49:41;62294.53;;;7.11;100.00
12694;BME280;6411;58.190;12.720;2023-02-11T07:52:07;62310.84;;;7.26;100.00
12694;BME280;6411;58.190;12.720;2023-02-11T07:54:32;62323.50;;;7.38;100.00
12694;BME280;6411;58.190;12.720;2023-02-11T07:56:58;62316.69;;;7.34;100.00
12694;BME280;6411;58.190;12.720;2023-02-11T07:59:23;62354.50;;;7.63;100.00
12694;BME280;6411;58.190;12.720;2023-02-11T08:01:49;62363.00;;;7.76;100.00
12694;BME280;6411;58.190;12.720;2023-02-11T08:04:15;62360.88;;;7.71;100.00
12694;BME280;6411;58.190;12.720;2023-02-11T08:06:41;62366.22;;;7.81;100.00
12694;BME280;6411;58.190;12.720;2023-02-11T08:09:10;62380.88;;;7.90;100.00
12694;BME280;6411;58.190;12.720;2023-02-11T08:11:38;62394.59;;;8.04;100.00
12694;BME280;6411;58.190;12.720;2023-02-11T08:14:03;62397.31;;;8.11;100.00
12694;BME280;6411;58.190;12.720;2023-02-11T08:16:31;62401.97;;;8.11;100.00
12694;BME280;6411;58.190;12.720;2023-02-11T08:19:00;62412.00;;;8.23;100.00
12694;BME280;6411;58.190;12.720;2023-02-11T08:21:26;62406.25;;;8.20;100.00
12694;BME280;6411;58.190;12.720;2023-02-11T08:23:52;62425.69;;;8.33;100.00
12694;BME280;6411;58.190;12.720;2023-02-11T08:26:21;62433.13;;;8.43;100.00
12694;BME280;6411;58.190;12.720;2023-02-11T08:28:48;62457.34;;;8.63;100.00
12694;BME280;6411;58.190;12.720;2023-02-11T08:31:20;62454.78;;;8.66;100.00
12694;BME280;6411;58.190;12.720;2023-02-11T08:33:46;62463.16;;;8.69;100.00
12694;BME280;6411;58.190;12.720;2023-02-11T08:38:39;62477.94;;;8.85;100.00
12694;BME280;6411;58.190;12.720;2023-02-11T08:41:04;62480.66;;;8.93;100.00
12694;BME280;6411;58.190;12.720;2023-02-11T08:43:30;62497.41;;;9.01;100.00
12694;BME280;6411;58.190;12.720;2023-02-11T08:45:55;62516.44;;;9.22;100.00
12694;BME280;6411;58.190;12.720;2023-02-11T08:48:21;62595.09;;;9.97;100.00
12694;BME280;6411;58.190;12.720;2023-02-11T08:50:46;62616.72;;;10.15;100.00
12694;BME280;6411;58.190;12.720;2023-02-11T08:53:12;62649.50;;;10.49;100.00
12694;BME280;6411;58.190;12.720;2023-02-11T08:55:37;62723.44;;;11.16;100.00
12694;BME280;6411;58.190;12.720;2023-02-11T08:58:03;62800.16;;;11.89;100.00
12694;BME280;6411;58.190;12.720;2023-02-11T09:00:29;62810.25;;;12.01;100.00
12694;BME280;6411;58.190;12.720;2023-02-11T09:02:55;62809.75;;;12.03;100.00
12694;BME280;6411;58.190;12.720;2023-02-11T09:05:20;62763.16;;;11.57;100.00
12694;BME280;6411;58.190;12.720;2023-02-11T09:07:47;62839.34;;;12.29;100.00
12694;BME280;6411;58.190;12.720;2023-02-11T09:10:12;62869.97;;;12.53;100.00
12694;BME280;6411;58.190;12.720;2023-02-11T09:12:38;62839.31;;;12.26;100.00
12694;BME280;6411;58.190;12.720;2023-02-11T09:15:03;62894.38;;;12.81;100.00
12694;BME280;6411;58.190;12.720;2023-02-11T09:17:29;62933.53;;;13.13;100.00
12694;BME280;6411;58.190;12.720;2023-02-11T09:19:54;62935.19;;;13.20;100.00
12694;BME280;6411;58.190;12.720;2023-02-11T09:22:20;62909.78;;;12.98;100.00
12694;BME280;6411;58.190;12.720;2023-02-11T09:24:45;62987.09;;;13.69;100.00
12694;BME280;6411;58.190;12.720;2023-02-11T09:27:11;62920.88;;;13.06;100.00
12694;BME280;6411;58.190;12.720;2023-02-11T09:29:36;62907.09;;;12.93;100.00
12694;BME280;6411;58.190;12.720;2023-02-11T09:32:02;62955.81;;;13.37;100.00
12694;BME280;6411;58.190;12.720;2023-02-11T09:34:28;63130.25;;;15.05;100.00
12694;BME280;6411;58.190;12.720;2023-02-11T09:36:53;63068.22;;;14.46;100.00
12694;BME280;6411;58.190;12.720;2023-02-11T09:39:19;63027.38;;;14.07;100.00
12694;BME280;6411;58.190;12.720;2023-02-11T09:42:06;63084.09;;;14.59;100.00
12694;BME280;6411;58.190;12.720;2023-02-11T09:44:36;63139.25;;;15.11;100.00
12694;BME280;6411;58.190;12.720;2023-02-11T09:47:12;63240.16;;;16.09;100.00
12694;BME280;6411;58.190;12.720;2023-02-11T09:49:46;63244.41;;;16.13;100.00
12694;BME280;6411;58.190;12.720;2023-02-11T09:57:16;63138.19;;;15.10;100.00
12694;BME280;6411;58.190;12.720;2023-02-11T09:59:41;63180.69;;;15.52;100.00
12694;BME280;6411;58.190;12.720;2023-02-11T10:02:27;63249.69;;;16.15;100.00
12694;BME280;6411;58.190;12.720;2023-02-11T10:07:30;63101.56;;;14.73;100.00
12694;BME280;6411;58.190;12.720;2023-02-11T10:13:34;62894.88;;;12.79;100.00
12694;BME280;6411;58.190;12.720;2023-02-11T10:22:12;62701.28;;;10.98;100.00
12694;BME280;6411;58.190;12.720;2023-02-11T10:24:41;62642.56;;;10.37;100.00
12694;BME280;6411;58.190;12.720;2023-02-11T10:27:23;62603.00;;;10.04;100.00
12694;BME280;6411;58.190;12.720;2023-02-11T10:29:58;62669.03;;;10.65;100.00
12694;BME280;6411;58.190;12.720;2023-02-11T10:32:43;62646.28;;;10.41;100.00
12694;BME280;6411;58.190;12.720;2023-02-11T10:35:19;62686.44;;;10.81;100.00
12694;BME280;6411;58.190;12.720;2023-02-11T10:37:46;62741.41;;;11.31;100.00
12694;BME280;6411;58.190;12.720;2023-02-11T10:40:23;62682.75;;;10.78;100.00
12694;BME280;6411;58.190;12.720;2023-02-11T10:43:02;62783.22;;;11.73;100.00
12694;BME280;6411;58.190;12.720;2023-02-11T10:45:47;62863.16;;;12.52;100.00
12694;BME280;6411;58.190;12.720;2023-02-11T10:48:39;62948.38;;;13.30;100.00
12694;BME280;6411;58.190;12.720;2023-02-11T10:51:23;62868.94;;;12.55;100.00
12694;BME280;6411;58.190;12.720;2023-02-11T10:56:40;62888.00;;;12.73;100.00
12694;BME280;6411;58.190;12.720;2023-02-11T11:04:41;62993.38;;;13.68;100.00
12694;BME280;6411;58.190;12.720;2023-02-11T11:07:11;63023.63;;;14.01;100.00
12694;BME280;6411;58.190;12.720;2023-02-11T11:10:10;63030.06;;;14.12;100.00
12694;BME280;6411;58.190;12.720;2023-02-11T11:12:49;62998.19;;;13.77;100.00
12694;BME280;6411;58.190;12.720;2023-02-11T11:15:29;63012.50;;;13.91;100.00
12694;BME280;6411;58.190;12.720;2023-02-11T11:18:15;63113.31;;;14.89;100.00
12694;BME280;6411;58.190;12.720;2023-02-11T11:21:03;63156.81;;;15.30;100.00
12694;BME280;6411;58.190;12.720;2023-02-11T11:23:30;63156.84;;;15.35;100.00
12694;BME280;6411;58.190;12.720;2023-02-11T11:28:26;63193.38;;;15.59;100.00
12694;BME280;6411;58.190;12.720;2023-02-11T11:30:54;63170.63;;;15.43;100.00
12694;BME280;6411;58.190;12.720;2023-02-11T11:33:27;63179.13;;;15.53;100.00
12694;BME280;6411;58.190;12.720;2023-02-11T11:36:06;63187.59;;;15.59;100.00
12694;BME280;6411;58.190;12.720;2023-02-11T11:38:35;62998.19;;;13.77;100.00
12694;BME280;6411;58.190;12.720;2023-02-11T11:41:29;62991.31;;;13.71;100.00
12694;BME280;6411;58.190;12.720;2023-02-11T11:43:58;62963.72;;;13.42;100.00
12694;BME280;6411;58.190;12.720;2023-02-11T11:51:38;62816.59;;;12.07;100.00
12694;BME280;6411;58.190;12.720;2023-02-11T11:54:12;62808.09;;;11.97;100.00
12694;BME280;6411;58.190;12.720;2023-02-11T11:56:50;62772.56;;;11.58;100.00
12694;BME280;6411;58.190;12.720;2023-02-11T11:59:17;62747.25;;;11.39;100.00
12694;BME280;6411;58.190;12.720;2023-02-11T12:04:57;62692.84;;;10.90;100.00
12694;BME280;6411;58.190;12.720;2023-02-11T12:10:50;62528.53;;;9.29;100.00
12694;BME280;6411;58.190;12.720;2023-02-11T12:13:47;62553.97;;;9.60;100.00
12694;BME280;6411;58.190;12.720;2023-02-11T12:27:59;62569.72;;;9.70;100.00
12694;BME280;6411;58.190;12.720;2023-02-11T12:36:14;62600.31;;;9.97;100.00
12694;BME280;6411;58.190;12.720;2023-02-11T12:39:14;62596.09;;;9.95;100.00
12694;BME280;6411;58.190;12.720;2023-02-11T12:55:20;62436.22;;;8.41;100.00
12694;BME280;6411;58.190;12.720;2023-02-11T12:57:49;62458.88;;;8.62;100.00
12694;BME280;6411;58.190;12.720;2023-02-11T13:00:24;62504.19;;;9.03;100.00
12694;BME280;6411;58.190;12.720;2023-02-11T13:02:58;62497.94;;;9.02;100.00
12694;BME280;6411;58.190;12.720;2023-02-11T13:05:57;62551.78;;;9.53;100.00
12694;BME280;6411;58.190;12.720;2023-02-11T13:08:36;62541.75;;;9.44;100.00
12694;BME280;6411;58.190;12.720;2023-02-11T13:11:07;62524.91;;;9.30;100.00
12694;BME280;6411;58.190;12.720;2023-02-11T13:16:35;62553.84;;;9.53;100.00
12694;BME280;6411;58.190;12.720;2023-02-11T13:19:34;62544.97;;;9.52;100.00
12694;BME280;6411;58.190;12.720;2023-02-11T13:22:19;62503.22;;;9.07;100.00
12694;BME280;6411;58.190;12.720;2023-02-11T13:30:27;62414.16;;;8.25;100.00
12694;BME280;6411;58.190;12.720;2023-02-11T13:35:28;62397.31;;;8.11;100.00
12694;BME280;6411;58.190;12.720;2023-02-11T13:37:54;62399.84;;;8.09;100.00
12694;BME280;6411;58.190;12.720;2023-02-11T13:40:26;62406.22;;;8.17;100.00
12694;BME280;6411;58.190;12.720;2023-02-11T13:42:55;62425.22;;;8.35;100.00
12694;BME280;6411;58.190;12.720;2023-02-11T13:47:58;62430.47;;;8.40;100.00
12694;BME280;6411;58.190;12.720;2023-02-11T13:50:26;62425.16;;;8.33;100.00
12694;BME280;6411;58.190;12.720;2023-02-11T13:53:00;62390.94;;;8.03;100.00
12694;BME280;6411;58.190;12.720;2023-02-11T13:55:26;62374.16;;;7.91;100.00
12694;BME280;6411;58.190;12.720;2023-02-11T14:11:47;62425.25;;;8.38;100.00
12694;BME280;6411;58.190;12.720;2023-02-11T14:14:23;62410.41;;;8.19;100.00
12694;BME280;6411;58.190;12.720;2023-02-11T14:27:07;62345.09;;;7.59;100.00
12694;BME280;6411;58.190;12.720;2023-02-11T14:29:44;62340.88;;;7.55;100.00
12694;BME280;6411;58.190;12.720;2023-02-11T14:38:59;62376.53;;;7.79;100.00
12694;BME280;6411;58.190;12.720;2023-02-11T14:41:47;62349.84;;;7.63;100.00
12694;BME280;6411;58.190;12.720;2023-02-11T14:44:21;62345.63;;;7.59;100.00
12694;BME280;6411;58.190;12.720;2023-02-11T14:46:49;62353.56;;;7.69;100.00
12694;BME280;6411;58.190;12.720;2023-02-11T14:49:32;62319.28;;;7.34;100.00
12694;BME280;6411;58.190;12.720;2023-02-11T14:52:12;62329.91;;;7.49;100.00
12694;BME280;6411;58.190;12.720;2023-02-11T14:54:43;62337.28;;;7.56;100.00
12694;BME280;6411;58.190;12.720;2023-02-11T14:57:14;62312.44;;;7.28;100.00
12694;BME280;6411;58.190;12.720;2023-02-11T15:00:04;62290.22;;;7.02;100.00
12694;BME280;6411;58.190;12.720;2023-02-11T15:02:37;62269.41;;;6.94;100.00
12694;BME280;6411;58.190;12.720;2023-02-11T15:07:51;62211.97;;;6.34;100.00
12694;BME280;6411;58.190;12.720;2023-02-11T15:12:55;62188.75;;;6.10;100.00
12694;BME280;6411;58.190;12.720;2023-02-11T15:15:22;62191.97;;;6.15;100.00
12694;BME280;6411;58.190;12.720;2023-02-11T15:17:47;62188.69;;;6.05;100.00
12694;BME280;6411;58.190;12.720;2023-02-11T15:20:23;62170.28;;;5.87;100.00
12694;BME280;6411;58.190;12.720;2023-02-11T15:23:02;62150.88;;;5.74;100.00
12694;BME280;6411;58.190;12.720;2023-02-11T15:25:30;62117.72;;;5.39;100.00
12694;BME280;6411;58.190;12.720;2023-02-11T15:27:57;62112.41;;;5.32;100.00
12694;BME280;6411;58.190;12.720;2023-02-11T15:30:26;62106.16;;;5.28;100.00
12694;BME280;6411;58.190;12.720;2023-02-11T15:32:54;62092.06;;;5.20;100.00
12694;BME280;6411;58.190;12.720;2023-02-11T15:35:29;62079.53;;;5.13;100.00
12694;BME280;6411;58.190;12.720;2023-02-11T15:37:56;62084.09;;;5.07;100.00
12694;BME280;6411;58.190;12.720;2023-02-11T15:40:27;62062.59;;;4.89;100.00
12694;BME280;6411;58.190;12.720;2023-02-11T15:42:55;62048.44;;;4.78;100.00
12694;BME280;6411;58.190;12.720;2023-02-11T15:45:24;62041.47;;;4.64;100.00